sensor_id;sensor_type;location;lat;lon;timestamp;temperature;humidity
68943;DHT22;60852;52.190;4.422;2023-02-01T00:00:33;8.62;71.36
68943;DHT22;60852;52.190;4.422;2023-02-01T00:03:00;8.59;71.43
68943;DHT22;60852;52.190;4.422;2023-02-01T00:05:25;8.56;71.43
68943;DHT22;60852;52.190;4.422;2023-02-01T00:07:51;8.55;71.51
68943;DHT22;60852;52.190;4.422;2023-02-01T00:10:17;8.57;71.47
68943;DHT22;60852;52.190;4.422;2023-02-01T00:12:43;8.52;71.76
68943;DHT22;60852;52.190;4.422;2023-02-01T00:15:09;8.50;71.85
68943;DHT22;60852;52.190;4.422;2023-02-01T00:17:35;8.49;71.94
68943;DHT22;60852;52.190;4.422;2023-02-01T00:20:00;8.39;71.70
68943;DHT22;60852;52.190;4.422;2023-02-01T00:22:26;8.36;71.65
68943;DHT22;60852;52.190;4.422;2023-02-01T00:24:51;8.36;71.56
68943;DHT22;60852;52.190;4.422;2023-02-01T00:27:17;8.38;71.62
68943;DHT22;60852;52.190;4.422;2023-02-01T00:29:45;8.34;71.27
68943;DHT22;60852;52.190;4.422;2023-02-01T00:32:11;8.31;71.39
68943;DHT22;60852;52.190;4.422;2023-02-01T00:34:36;8.34;71.45
68943;DHT22;60852;52.190;4.422;2023-02-01T00:37:02;8.38;71.27
68943;DHT22;60852;52.190;4.422;2023-02-01T00:39:27;8.38;71.21
68943;DHT22;60852;52.190;4.422;2023-02-01T00:41:53;8.38;71.43
68943;DHT22;60852;52.190;4.422;2023-02-01T00:44:18;8.38;71.17
68943;DHT22;60852;52.190;4.422;2023-02-01T00:46:44;8.43;71.15
68943;DHT22;60852;52.190;4.422;2023-02-01T00:49:09;8.41;71.41
68943;DHT22;60852;52.190;4.422;2023-02-01T00:51:35;8.43;71.37
68943;DHT22;60852;52.190;4.422;2023-02-01T00:54:00;8.50;71.44
68943;DHT22;60852;52.190;4.422;2023-02-01T00:56:26;8.36;71.36
68943;DHT22;60852;52.190;4.422;2023-02-01T00:58:55;8.41;71.02
68943;DHT22;60852;52.190;4.422;2023-02-01T01:01:26;8.45;71.30
68943;DHT22;60852;52.190;4.422;2023-02-01T01:03:59;8.50;71.48
68943;DHT22;60852;52.190;4.422;2023-02-01T01:06:27;8.50;71.71
68943;DHT22;60852;52.190;4.422;2023-02-01T01:08:55;8.55;71.94
68943;DHT22;60852;52.190;4.422;2023-02-01T01:11:26;8.55;72.18
68943;DHT22;60852;52.190;4.422;2023-02-01T01:13:53;8.59;72.17
68943;DHT22;60852;52.190;4.422;2023-02-01T01:16:21;8.62;72.30
68943;DHT22;60852;52.190;4.422;2023-02-01T01:18:47;8.59;72.36
68943;DHT22;60852;52.190;4.422;2023-02-01T01:21:14;8.62;72.47
68943;DHT22;60852;52.190;4.422;2023-02-01T01:23:40;8.64;72.60
68943;DHT22;60852;52.190;4.422;2023-02-01T01:26:07;8.56;72.50
68943;DHT22;60852;52.190;4.422;2023-02-01T01:28:32;8.56;72.38
68943;DHT22;60852;52.190;4.422;2023-02-01T01:30:58;8.56;72.99
68943;DHT22;60852;52.190;4.422;2023-02-01T01:33:23;8.63;73.42
68943;DHT22;60852;52.190;4.422;2023-02-01T01:35:49;8.52;73.74
68943;DHT22;60852;52.190;4.422;2023-02-01T01:38:14;8.52;73.13
68943;DHT22;60852;52.190;4.422;2023-02-01T01:40:44;8.45;72.76
68943;DHT22;60852;52.190;4.422;2023-02-01T01:43:19;8.45;72.76
68943;DHT22;60852;52.190;4.422;2023-02-01T01:45:48;8.52;72.92
68943;DHT22;60852;52.190;4.422;2023-02-01T01:48:27;8.52;72.83
68943;DHT22;60852;52.190;4.422;2023-02-01T01:51:03;8.49;72.81
68943;DHT22;60852;52.190;4.422;2023-02-01T01:53:40;8.50;72.72
68943;DHT22;60852;52.190;4.422;2023-02-01T01:56:07;8.50;72.36
68943;DHT22;60852;52.190;4.422;2023-02-01T01:58:34;8.49;72.32
68943;DHT22;60852;52.190;4.422;2023-02-01T02:00:59;8.50;72.52
68943;DHT22;60852;52.190;4.422;2023-02-01T02:03:42;8.48;72.86
68943;DHT22;60852;52.190;4.422;2023-02-01T02:06:27;8.45;72.39
68943;DHT22;60852;52.190;4.422;2023-02-01T02:08:55;8.45;72.65
68943;DHT22;60852;52.190;4.422;2023-02-01T02:11:20;8.53;72.78
68943;DHT22;60852;52.190;4.422;2023-02-01T02:13:51;8.53;72.64
68943;DHT22;60852;52.190;4.422;2023-02-01T02:27:21;8.53;73.10
68943;DHT22;60852;52.190;4.422;2023-02-01T02:29:58;8.46;73.42
68943;DHT22;60852;52.190;4.422;2023-02-01T02:32:38;8.53;73.74
68943;DHT22;60852;52.190;4.422;2023-02-01T02:38:12;8.52;73.22
68943;DHT22;60852;52.190;4.422;2023-02-01T02:40:52;8.46;73.32
68943;DHT22;60852;52.190;4.422;2023-02-01T02:43:24;8.55;73.25
68943;DHT22;60852;52.190;4.422;2023-02-01T02:46:24;8.55;72.87
68943;DHT22;60852;52.190;4.422;2023-02-01T02:49:19;8.57;72.88
68943;DHT22;60852;52.190;4.422;2023-02-01T02:51:51;8.55;73.08
68943;DHT22;60852;52.190;4.422;2023-02-01T02:54:41;8.46;72.98
68943;DHT22;60852;52.190;4.422;2023-02-01T02:57:34;8.48;72.97
68943;DHT22;60852;52.190;4.422;2023-02-01T03:00:24;8.43;73.71
68943;DHT22;60852;52.190;4.422;2023-02-01T03:03:11;8.38;73.67
68943;DHT22;60852;52.190;4.422;2023-02-01T03:05:55;8.22;73.14
68943;DHT22;60852;52.190;4.422;2023-02-01T03:08:29;8.12;73.66
68943;DHT22;60852;52.190;4.422;2023-02-01T03:11:05;8.22;73.73
68943;DHT22;60852;52.190;4.422;2023-02-01T03:16:22;8.21;73.90
68943;DHT22;60852;52.190;4.422;2023-02-01T03:21:38;8.29;73.87
68943;DHT22;60852;52.190;4.422;2023-02-01T03:24:19;8.32;73.59
68943;DHT22;60852;52.190;4.422;2023-02-01T03:26:53;8.36;73.65
68943;DHT22;60852;52.190;4.422;2023-02-01T03:29:30;8.35;73.64
68943;DHT22;60852;52.190;4.422;2023-02-01T03:31:57;8.35;73.58
68943;DHT22;60852;52.190;4.422;2023-02-01T03:34:23;8.31;73.60
68943;DHT22;60852;52.190;4.422;2023-02-01T03:36:55;8.26;73.92
68943;DHT22;60852;52.190;4.422;2023-02-01T03:42:24;8.08;73.69
68943;DHT22;60852;52.190;4.422;2023-02-01T03:44:54;8.02;73.90
68943;DHT22;60852;52.190;4.422;2023-02-01T03:47:29;8.14;73.85
68943;DHT22;60852;52.190;4.422;2023-02-01T03:50:33;8.08;73.96
68943;DHT22;60852;52.190;4.422;2023-02-01T03:53:07;8.09;74.21
68943;DHT22;60852;52.190;4.422;2023-02-01T03:55:35;8.08;74.25
68943;DHT22;60852;52.190;4.422;2023-02-01T03:58:09;8.12;73.62
68943;DHT22;60852;52.190;4.422;2023-02-01T04:00:37;8.11;73.12
68943;DHT22;60852;52.190;4.422;2023-02-01T04:03:05;8.14;73.38
68943;DHT22;60852;52.190;4.422;2023-02-01T04:05:30;8.12;73.07
68943;DHT22;60852;52.190;4.422;2023-02-01T04:07:57;8.11;72.81
68943;DHT22;60852;52.190;4.422;2023-02-01T04:10:23;8.12;72.59
68943;DHT22;60852;52.190;4.422;2023-02-01T04:12:48;8.11;72.61
68943;DHT22;60852;52.190;4.422;2023-02-01T04:15:14;8.09;73.45
68943;DHT22;60852;52.190;4.422;2023-02-01T04:17:39;8.08;73.82
68943;DHT22;60852;52.190;4.422;2023-02-01T04:20:05;8.05;74.09
68943;DHT22;60852;52.190;4.422;2023-02-01T04:22:31;7.98;73.77
68943;DHT22;60852;52.190;4.422;2023-02-01T04:24:57;7.98;73.75
68943;DHT22;60852;52.190;4.422;2023-02-01T04:27:23;8.01;74.15
68943;DHT22;60852;52.190;4.422;2023-02-01T04:29:48;8.01;74.18
68943;DHT22;60852;52.190;4.422;2023-02-01T04:32:18;7.95;74.31
68943;DHT22;60852;52.190;4.422;2023-02-01T04:34:45;7.97;74.53
68943;DHT22;60852;52.190;4.422;2023-02-01T04:37:11;7.99;74.74
68943;DHT22;60852;52.190;4.422;2023-02-01T04:39:36;7.91;74.78
68943;DHT22;60852;52.190;4.422;2023-02-01T04:42:02;7.98;74.68
68943;DHT22;60852;52.190;4.422;2023-02-01T04:44:28;7.95;74.85
68943;DHT22;60852;52.190;4.422;2023-02-01T04:46:53;7.93;74.61
68943;DHT22;60852;52.190;4.422;2023-02-01T04:49:19;7.90;74.69
68943;DHT22;60852;52.190;4.422;2023-02-01T04:51:46;7.95;74.92
68943;DHT22;60852;52.190;4.422;2023-02-01T04:54:12;7.90;74.80
68943;DHT22;60852;52.190;4.422;2023-02-01T04:56:38;7.93;74.70
68943;DHT22;60852;52.190;4.422;2023-02-01T04:59:04;7.97;74.67
68943;DHT22;60852;52.190;4.422;2023-02-01T05:01:29;7.94;74.73
68943;DHT22;60852;52.190;4.422;2023-02-01T05:03:55;7.91;74.98
68943;DHT22;60852;52.190;4.422;2023-02-01T05:06:21;7.90;75.20
68943;DHT22;60852;52.190;4.422;2023-02-01T05:08:46;7.93;75.03
68943;DHT22;60852;52.190;4.422;2023-02-01T05:11:12;7.91;75.48
68943;DHT22;60852;52.190;4.422;2023-02-01T05:13:58;7.88;75.53
68943;DHT22;60852;52.190;4.422;2023-02-01T05:16:25;7.83;76.14
68943;DHT22;60852;52.190;4.422;2023-02-01T05:18:51;7.90;75.90
68943;DHT22;60852;52.190;4.422;2023-02-01T05:21:16;7.90;75.80
68943;DHT22;60852;52.190;4.422;2023-02-01T05:23:42;7.88;76.00
68943;DHT22;60852;52.190;4.422;2023-02-01T05:26:26;7.91;76.17
68943;DHT22;60852;52.190;4.422;2023-02-01T05:28:51;7.94;75.99
68943;DHT22;60852;52.190;4.422;2023-02-01T05:31:17;7.91;75.12
68943;DHT22;60852;52.190;4.422;2023-02-01T05:33:42;7.88;74.51
68943;DHT22;60852;52.190;4.422;2023-02-01T05:36:08;7.80;75.06
68943;DHT22;60852;52.190;4.422;2023-02-01T05:38:33;7.88;75.19
68943;DHT22;60852;52.190;4.422;2023-02-01T05:40:59;7.87;75.50
68943;DHT22;60852;52.190;4.422;2023-02-01T05:43:24;7.90;75.15
68943;DHT22;60852;52.190;4.422;2023-02-01T05:45:51;7.91;74.98
68943;DHT22;60852;52.190;4.422;2023-02-01T05:48:17;7.97;75.21
68943;DHT22;60852;52.190;4.422;2023-02-01T05:50:43;7.98;75.48
68943;DHT22;60852;52.190;4.422;2023-02-01T05:53:09;8.01;75.72
68943;DHT22;60852;52.190;4.422;2023-02-01T05:55:36;7.99;75.69
68943;DHT22;60852;52.190;4.422;2023-02-01T05:58:01;8.02;75.57
68943;DHT22;60852;52.190;4.422;2023-02-01T06:00:26;7.98;75.63
68943;DHT22;60852;52.190;4.422;2023-02-01T06:02:52;7.90;75.65
68943;DHT22;60852;52.190;4.422;2023-02-01T06:05:17;7.94;75.43
68943;DHT22;60852;52.190;4.422;2023-02-01T06:07:43;7.99;75.82
68943;DHT22;60852;52.190;4.422;2023-02-01T06:10:09;8.02;76.30
68943;DHT22;60852;52.190;4.422;2023-02-01T06:12:35;8.02;76.44
68943;DHT22;60852;52.190;4.422;2023-02-01T06:15:01;8.04;76.55
68943;DHT22;60852;52.190;4.422;2023-02-01T06:17:26;8.06;75.91
68943;DHT22;60852;52.190;4.422;2023-02-01T06:19:52;8.02;75.69
68943;DHT22;60852;52.190;4.422;2023-02-01T06:22:17;8.02;75.75
68943;DHT22;60852;52.190;4.422;2023-02-01T06:24:43;8.01;75.25
68943;DHT22;60852;52.190;4.422;2023-02-01T06:27:09;8.02;75.68
68943;DHT22;60852;52.190;4.422;2023-02-01T06:29:38;7.99;75.84
68943;DHT22;60852;52.190;4.422;2023-02-01T06:32:03;8.01;75.59
68943;DHT22;60852;52.190;4.422;2023-02-01T06:34:29;8.05;75.46
68943;DHT22;60852;52.190;4.422;2023-02-01T06:36:54;8.06;75.28
68943;DHT22;60852;52.190;4.422;2023-02-01T06:39:20;7.94;74.82
68943;DHT22;60852;52.190;4.422;2023-02-01T06:41:47;7.97;75.29
68943;DHT22;60852;52.190;4.422;2023-02-01T06:44:13;8.04;75.15
68943;DHT22;60852;52.190;4.422;2023-02-01T06:46:38;8.04;74.92
68943;DHT22;60852;52.190;4.422;2023-02-01T06:49:04;8.15;74.85
68943;DHT22;60852;52.190;4.422;2023-02-01T06:51:29;8.11;75.02
68943;DHT22;60852;52.190;4.422;2023-02-01T06:53:55;8.14;75.11
68943;DHT22;60852;52.190;4.422;2023-02-01T06:56:21;8.08;75.23
68943;DHT22;60852;52.190;4.422;2023-02-01T06:58:47;8.08;75.34
68943;DHT22;60852;52.190;4.422;2023-02-01T07:01:13;8.04;75.63
68943;DHT22;60852;52.190;4.422;2023-02-01T07:03:39;8.06;75.70
68943;DHT22;60852;52.190;4.422;2023-02-01T07:06:05;7.99;75.93
68943;DHT22;60852;52.190;4.422;2023-02-01T07:08:33;7.99;75.95
68943;DHT22;60852;52.190;4.422;2023-02-01T07:11:06;7.97;76.17
68943;DHT22;60852;52.190;4.422;2023-02-01T07:13:32;7.97;76.01
68943;DHT22;60852;52.190;4.422;2023-02-01T07:16:00;7.99;75.95
68943;DHT22;60852;52.190;4.422;2023-02-01T07:18:27;8.02;75.91
68943;DHT22;60852;52.190;4.422;2023-02-01T07:20:53;8.04;75.92
68943;DHT22;60852;52.190;4.422;2023-02-01T07:23:19;8.01;75.98
68943;DHT22;60852;52.190;4.422;2023-02-01T07:25:45;7.94;76.03
68943;DHT22;60852;52.190;4.422;2023-02-01T07:28:11;7.91;75.95
68943;DHT22;60852;52.190;4.422;2023-02-01T07:30:36;7.97;76.02
68943;DHT22;60852;52.190;4.422;2023-02-01T07:33:01;8.05;75.94
68943;DHT22;60852;52.190;4.422;2023-02-01T07:35:28;8.11;76.08
68943;DHT22;60852;52.190;4.422;2023-02-01T07:37:53;8.09;75.99
68943;DHT22;60852;52.190;4.422;2023-02-01T07:40:19;8.08;75.67
68943;DHT22;60852;52.190;4.422;2023-02-01T07:42:48;8.11;75.59
68943;DHT22;60852;52.190;4.422;2023-02-01T07:45:13;8.11;75.67
68943;DHT22;60852;52.190;4.422;2023-02-01T07:47:40;8.11;75.46
68943;DHT22;60852;52.190;4.422;2023-02-01T07:50:06;7.98;75.52
68943;DHT22;60852;52.190;4.422;2023-02-01T07:52:31;7.97;75.74
68943;DHT22;60852;52.190;4.422;2023-02-01T07:54:56;7.98;75.89
68943;DHT22;60852;52.190;4.422;2023-02-01T07:57:22;8.05;75.71
68943;DHT22;60852;52.190;4.422;2023-02-01T07:59:47;8.05;75.15
68943;DHT22;60852;52.190;4.422;2023-02-01T08:02:31;8.12;75.09
68943;DHT22;60852;52.190;4.422;2023-02-01T08:04:57;8.15;75.33
68943;DHT22;60852;52.190;4.422;2023-02-01T08:07:22;8.12;75.49
68943;DHT22;60852;52.190;4.422;2023-02-01T08:09:48;8.12;75.28
68943;DHT22;60852;52.190;4.422;2023-02-01T08:12:13;8.18;75.12
68943;DHT22;60852;52.190;4.422;2023-02-01T08:14:39;8.16;74.76
68943;DHT22;60852;52.190;4.422;2023-02-01T08:17:06;8.26;74.52
68943;DHT22;60852;52.190;4.422;2023-02-01T08:19:32;8.28;74.63
68943;DHT22;60852;52.190;4.422;2023-02-01T08:21:57;8.16;74.62
68943;DHT22;60852;52.190;4.422;2023-02-01T08:24:24;8.21;74.81
68943;DHT22;60852;52.190;4.422;2023-02-01T08:26:50;8.34;75.00
68943;DHT22;60852;52.190;4.422;2023-02-01T08:29:15;8.41;74.80
68943;DHT22;60852;52.190;4.422;2023-02-01T08:31:41;8.43;74.68
68943;DHT22;60852;52.190;4.422;2023-02-01T08:34:08;8.43;74.83
68943;DHT22;60852;52.190;4.422;2023-02-01T08:36:34;8.36;75.00
68943;DHT22;60852;52.190;4.422;2023-02-01T08:39:00;8.35;75.07
68943;DHT22;60852;52.190;4.422;2023-02-01T08:41:29;8.50;74.83
68943;DHT22;60852;52.190;4.422;2023-02-01T08:43:56;8.52;74.20
68943;DHT22;60852;52.190;4.422;2023-02-01T08:46:22;8.50;74.04
68943;DHT22;60852;52.190;4.422;2023-02-01T08:48:48;8.52;73.98
68943;DHT22;60852;52.190;4.422;2023-02-01T08:51:16;8.48;74.41
68943;DHT22;60852;52.190;4.422;2023-02-01T08:53:42;8.56;73.89
68943;DHT22;60852;52.190;4.422;2023-02-01T08:56:10;8.62;73.73
68943;DHT22;60852;52.190;4.422;2023-02-01T08:58:36;8.62;73.38
68943;DHT22;60852;52.190;4.422;2023-02-01T09:01:07;8.60;73.28
68943;DHT22;60852;52.190;4.422;2023-02-01T09:03:33;8.70;73.34
68943;DHT22;60852;52.190;4.422;2023-02-01T09:06:00;8.66;73.03
68943;DHT22;60852;52.190;4.422;2023-02-01T09:08:26;8.66;73.60
68943;DHT22;60852;52.190;4.422;2023-02-01T09:10:51;8.74;73.45
68943;DHT22;60852;52.190;4.422;2023-02-01T09:13:17;8.63;73.63
68943;DHT22;60852;52.190;4.422;2023-02-01T09:15:42;8.74;73.61
68943;DHT22;60852;52.190;4.422;2023-02-01T09:18:08;8.73;73.95
68943;DHT22;60852;52.190;4.422;2023-02-01T09:20:33;8.66;73.88
68943;DHT22;60852;52.190;4.422;2023-02-01T09:22:58;8.70;73.82
68943;DHT22;60852;52.190;4.422;2023-02-01T09:25:25;8.72;73.65
68943;DHT22;60852;52.190;4.422;2023-02-01T09:27:51;8.76;73.45
68943;DHT22;60852;52.190;4.422;2023-02-01T09:30:16;8.81;73.39
68943;DHT22;60852;52.190;4.422;2023-02-01T09:32:42;8.87;73.65
68943;DHT22;60852;52.190;4.422;2023-02-01T09:35:08;8.85;74.12
68943;DHT22;60852;52.190;4.422;2023-02-01T09:37:33;8.88;73.02
68943;DHT22;60852;52.190;4.422;2023-02-01T09:39:58;8.85;72.52
68943;DHT22;60852;52.190;4.422;2023-02-01T09:45:24;8.64;73.50
68943;DHT22;60852;52.190;4.422;2023-02-01T09:48:00;8.67;73.47
68943;DHT22;60852;52.190;4.422;2023-02-01T09:50:35;8.69;73.27
68943;DHT22;60852;52.190;4.422;2023-02-01T09:53:15;8.64;73.90
68943;DHT22;60852;52.190;4.422;2023-02-01T09:55:48;8.73;73.99
68943;DHT22;60852;52.190;4.422;2023-02-01T09:58:27;8.67;74.09
68943;DHT22;60852;52.190;4.422;2023-02-01T10:00:58;8.74;73.68
68943;DHT22;60852;52.190;4.422;2023-02-01T10:03:29;8.81;73.41
68943;DHT22;60852;52.190;4.422;2023-02-01T10:06:00;8.80;73.84
68943;DHT22;60852;52.190;4.422;2023-02-01T10:08:33;8.87;73.68
68943;DHT22;60852;52.190;4.422;2023-02-01T10:14:04;8.83;73.65
68943;DHT22;60852;52.190;4.422;2023-02-01T10:22:11;8.81;74.26
68943;DHT22;60852;52.190;4.422;2023-02-01T10:27:47;8.79;75.40
68943;DHT22;60852;52.190;4.422;2023-02-01T10:30:20;8.76;75.41
68943;DHT22;60852;52.190;4.422;2023-02-01T10:32:48;8.72;75.11
68943;DHT22;60852;52.190;4.422;2023-02-01T10:35:17;8.83;75.18
68943;DHT22;60852;52.190;4.422;2023-02-01T10:37:44;8.81;74.94
68943;DHT22;60852;52.190;4.422;2023-02-01T10:40:21;8.90;74.47
68943;DHT22;60852;52.190;4.422;2023-02-01T10:42:56;8.84;73.94
68943;DHT22;60852;52.190;4.422;2023-02-01T10:45:26;8.80;74.25
68943;DHT22;60852;52.190;4.422;2023-02-01T10:47:55;8.87;74.16
68943;DHT22;60852;52.190;4.422;2023-02-01T10:55:47;8.84;73.55
68943;DHT22;60852;52.190;4.422;2023-02-01T10:58:29;8.90;73.61
68943;DHT22;60852;52.190;4.422;2023-02-01T11:01:00;8.94;73.42
68943;DHT22;60852;52.190;4.422;2023-02-01T11:06:34;9.10;73.19
68943;DHT22;60852;52.190;4.422;2023-02-01T11:11:33;9.15;73.01
68943;DHT22;60852;52.190;4.422;2023-02-01T11:14:40;9.07;72.83
68943;DHT22;60852;52.190;4.422;2023-02-01T11:19:46;9.00;73.28
68943;DHT22;60852;52.190;4.422;2023-02-01T11:22:14;9.05;73.42
68943;DHT22;60852;52.190;4.422;2023-02-01T11:24:44;9.07;73.36
68943;DHT22;60852;52.190;4.422;2023-02-01T11:27:17;9.10;72.98
68943;DHT22;60852;52.190;4.422;2023-02-01T11:29:48;9.05;72.86
68943;DHT22;60852;52.190;4.422;2023-02-01T11:32:18;9.14;72.71
68943;DHT22;60852;52.190;4.422;2023-02-01T11:34:53;9.11;72.86
68943;DHT22;60852;52.190;4.422;2023-02-01T11:37:27;9.21;72.56
68943;DHT22;60852;52.190;4.422;2023-02-01T11:39:56;9.25;72.29
68943;DHT22;60852;52.190;4.422;2023-02-01T11:42:23;9.27;72.22
68943;DHT22;60852;52.190;4.422;2023-02-01T11:44:49;9.23;72.32
68943;DHT22;60852;52.190;4.422;2023-02-01T11:47:25;9.15;72.97
68943;DHT22;60852;52.190;4.422;2023-02-01T11:50:00;9.05;73.35
68943;DHT22;60852;52.190;4.422;2023-02-01T11:52:39;9.07;73.48
68943;DHT22;60852;52.190;4.422;2023-02-01T12:06:52;9.38;73.12
68943;DHT22;60852;52.190;4.422;2023-02-01T12:09:46;9.39;72.98
68943;DHT22;60852;52.190;4.422;2023-02-01T12:22:10;9.49;72.45
68943;DHT22;60852;52.190;4.422;2023-02-01T12:27:12;9.69;71.97
68943;DHT22;60852;52.190;4.422;2023-02-01T12:30:31;9.55;71.59
68943;DHT22;60852;52.190;4.422;2023-02-01T12:36:07;9.62;71.77
68943;DHT22;60852;52.190;4.422;2023-02-01T12:39:06;9.58;71.99
68943;DHT22;60852;52.190;4.422;2023-02-01T12:41:57;9.56;72.67
68943;DHT22;60852;52.190;4.422;2023-02-01T12:50:02;9.83;72.26
68943;DHT22;60852;52.190;4.422;2023-02-01T12:52:50;9.90;71.95
68943;DHT22;60852;52.190;4.422;2023-02-01T12:55:34;10.04;71.69
68943;DHT22;60852;52.190;4.422;2023-02-01T13:01:22;10.13;70.89
68943;DHT22;60852;52.190;4.422;2023-02-01T13:04:03;9.96;71.32
68943;DHT22;60852;52.190;4.422;2023-02-01T13:07:26;9.92;71.69
68943;DHT22;60852;52.190;4.422;2023-02-01T13:09:51;9.81;72.25
68943;DHT22;60852;52.190;4.422;2023-02-01T13:12:28;9.81;72.46
68943;DHT22;60852;52.190;4.422;2023-02-01T13:15:05;9.79;72.75
68943;DHT22;60852;52.190;4.422;2023-02-01T13:17:39;9.78;72.83
68943;DHT22;60852;52.190;4.422;2023-02-01T13:20:30;9.71;72.55
68943;DHT22;60852;52.190;4.422;2023-02-01T13:23:08;9.69;72.96
68943;DHT22;60852;52.190;4.422;2023-02-01T13:25:47;9.62;73.17
68943;DHT22;60852;52.190;4.422;2023-02-01T13:28:40;9.61;73.75
68943;DHT22;60852;52.190;4.422;2023-02-01T13:31:33;9.53;73.88
68943;DHT22;60852;52.190;4.422;2023-02-01T13:42:25;9.58;74.76
68943;DHT22;60852;52.190;4.422;2023-02-01T13:45:02;9.61;74.77
68943;DHT22;60852;52.190;4.422;2023-02-01T13:47:41;9.68;74.61
68943;DHT22;60852;52.190;4.422;2023-02-01T13:50:21;9.61;74.37
68943;DHT22;60852;52.190;4.422;2023-02-01T13:53:00;9.59;74.56
68943;DHT22;60852;52.190;4.422;2023-02-01T13:55:35;9.63;74.60
68943;DHT22;60852;52.190;4.422;2023-02-01T13:58:49;9.65;74.36
68943;DHT22;60852;52.190;4.422;2023-02-01T14:00:50;9.69;73.85
68943;DHT22;60852;52.190;4.422;2023-02-01T14:08:44;9.69;74.16
68943;DHT22;60852;52.190;4.422;2023-02-01T14:11:36;9.82;74.03
68943;DHT22;60852;52.190;4.422;2023-02-01T14:16:43;9.86;74.00
68943;DHT22;60852;52.190;4.422;2023-02-01T14:21:58;9.93;73.78
68943;DHT22;60852;52.190;4.422;2023-02-01T14:24:29;9.99;73.82
68943;DHT22;60852;52.190;4.422;2023-02-01T14:26:59;9.94;74.09
68943;DHT22;60852;52.190;4.422;2023-02-01T14:29:33;9.85;74.43
68943;DHT22;60852;52.190;4.422;2023-02-01T14:32:06;9.89;74.44
68943;DHT22;60852;52.190;4.422;2023-02-01T14:34:55;9.93;74.50
68943;DHT22;60852;52.190;4.422;2023-02-01T14:37:23;9.86;74.50
68943;DHT22;60852;52.190;4.422;2023-02-01T14:42:43;9.81;74.78
68943;DHT22;60852;52.190;4.422;2023-02-01T14:53:18;9.83;74.77
68943;DHT22;60852;52.190;4.422;2023-02-01T14:56:04;9.79;74.84
68943;DHT22;60852;52.190;4.422;2023-02-01T15:01:33;9.76;75.28
68943;DHT22;60852;52.190;4.422;2023-02-01T15:04:10;9.75;75.34
68943;DHT22;60852;52.190;4.422;2023-02-01T15:06:40;9.76;75.31
68943;DHT22;60852;52.190;4.422;2023-02-01T15:09:17;9.68;75.29
68943;DHT22;60852;52.190;4.422;2023-02-01T15:14:43;9.71;75.43
68943;DHT22;60852;52.190;4.422;2023-02-01T15:17:32;9.69;75.28
68943;DHT22;60852;52.190;4.422;2023-02-01T15:20:02;9.58;75.51
68943;DHT22;60852;52.190;4.422;2023-02-01T15:22:30;9.55;75.73
68943;DHT22;60852;52.190;4.422;2023-02-01T15:24:58;9.58;75.60
68943;DHT22;60852;52.190;4.422;2023-02-01T15:27:25;9.59;75.53
68943;DHT22;60852;52.190;4.422;2023-02-01T15:29:52;9.61;75.58
68943;DHT22;60852;52.190;4.422;2023-02-01T15:32:38;9.55;75.51
68943;DHT22;60852;52.190;4.422;2023-02-01T15:35:05;9.52;75.79
68943;DHT22;60852;52.190;4.422;2023-02-01T15:37:51;9.48;75.87
68943;DHT22;60852;52.190;4.422;2023-02-01T15:40:20;9.44;76.14
68943;DHT22;60852;52.190;4.422;2023-02-01T15:42:59;9.46;76.04
68943;DHT22;60852;52.190;4.422;2023-02-01T15:45:28;9.44;76.10
68943;DHT22;60852;52.190;4.422;2023-02-01T15:47:56;9.44;76.35
68943;DHT22;60852;52.190;4.422;2023-02-01T15:50:22;9.44;76.52
68943;DHT22;60852;52.190;4.422;2023-02-01T15:52:52;9.42;76.77
68943;DHT22;60852;52.190;4.422;2023-02-01T15:55:40;9.38;77.16
68943;DHT22;60852;52.190;4.422;2023-02-01T15:58:08;9.46;77.27
68943;DHT22;60852;52.190;4.422;2023-02-01T16:00:50;9.52;77.14
68943;DHT22;60852;52.190;4.422;2023-02-01T16:06:06;9.56;77.08
68943;DHT22;60852;52.190;4.422;2023-02-01T16:08:32;9.58;77.09
68943;DHT22;60852;52.190;4.422;2023-02-01T16:13:34;9.61;77.05
68943;DHT22;60852;52.190;4.422;2023-02-01T16:16:01;9.61;77.09
68943;DHT22;60852;52.190;4.422;2023-02-01T16:18:26;9.62;77.14
68943;DHT22;60852;52.190;4.422;2023-02-01T16:20:52;9.63;77.13
68943;DHT22;60852;52.190;4.422;2023-02-01T16:23:17;9.62;77.20
68943;DHT22;60852;52.190;4.422;2023-02-01T16:25:45;9.65;77.00
68943;DHT22;60852;52.190;4.422;2023-02-01T16:28:11;9.66;77.21
68943;DHT22;60852;52.190;4.422;2023-02-01T16:30:36;9.65;77.17
68943;DHT22;60852;52.190;4.422;2023-02-01T16:33:02;9.62;77.29
68943;DHT22;60852;52.190;4.422;2023-02-01T16:35:31;9.66;77.44
68943;DHT22;60852;52.190;4.422;2023-02-01T16:40:34;9.61;77.27
68943;DHT22;60852;52.190;4.422;2023-02-01T16:43:00;9.58;77.31
68943;DHT22;60852;52.190;4.422;2023-02-01T16:45:25;9.51;77.44
68943;DHT22;60852;52.190;4.422;2023-02-01T16:47:54;9.52;77.39
68943;DHT22;60852;52.190;4.422;2023-02-01T16:50:22;9.46;77.68
68943;DHT22;60852;52.190;4.422;2023-02-01T16:52:48;9.45;77.69
68943;DHT22;60852;52.190;4.422;2023-02-01T16:55:16;9.42;77.80
68943;DHT22;60852;52.190;4.422;2023-02-01T16:57:43;9.44;77.75
68943;DHT22;60852;52.190;4.422;2023-02-01T17:00:10;9.45;77.97
68943;DHT22;60852;52.190;4.422;2023-02-01T17:02:37;9.38;78.08
68943;DHT22;60852;52.190;4.422;2023-02-01T17:05:04;9.44;78.17
68943;DHT22;60852;52.190;4.422;2023-02-01T17:07:30;9.45;78.06
68943;DHT22;60852;52.190;4.422;2023-02-01T17:09:56;9.52;78.01
68943;DHT22;60852;52.190;4.422;2023-02-01T17:12:27;9.51;77.83
68943;DHT22;60852;52.190;4.422;2023-02-01T17:14:53;9.53;77.71
68943;DHT22;60852;52.190;4.422;2023-02-01T17:17:20;9.58;77.69
68943;DHT22;60852;52.190;4.422;2023-02-01T17:19:49;9.55;77.92
68943;DHT22;60852;52.190;4.422;2023-02-01T17:22:22;9.49;78.01
68943;DHT22;60852;52.190;4.422;2023-02-01T17:24:48;9.52;78.16
68943;DHT22;60852;52.190;4.422;2023-02-01T17:27:16;9.53;78.00
68943;DHT22;60852;52.190;4.422;2023-02-01T17:29:41;9.55;78.02
68943;DHT22;60852;52.190;4.422;2023-02-01T17:32:24;9.56;77.93
68943;DHT22;60852;52.190;4.422;2023-02-01T17:34:50;9.48;78.20
68943;DHT22;60852;52.190;4.422;2023-02-01T17:37:26;9.45;78.23
68943;DHT22;60852;52.190;4.422;2023-02-01T17:39:52;9.52;78.33
68943;DHT22;60852;52.190;4.422;2023-02-01T17:42:21;9.53;78.15
68943;DHT22;60852;52.190;4.422;2023-02-01T17:44:46;9.55;78.03
68943;DHT22;60852;52.190;4.422;2023-02-01T17:47:12;9.56;77.89
68943;DHT22;60852;52.190;4.422;2023-02-01T17:49:37;9.53;77.92
68943;DHT22;60852;52.190;4.422;2023-02-01T17:52:13;9.48;77.72
68943;DHT22;60852;52.190;4.422;2023-02-01T17:54:40;9.51;77.91
68943;DHT22;60852;52.190;4.422;2023-02-01T17:57:13;9.46;77.77
68943;DHT22;60852;52.190;4.422;2023-02-01T17:59:38;9.49;77.89
68943;DHT22;60852;52.190;4.422;2023-02-01T18:02:18;9.45;77.85
68943;DHT22;60852;52.190;4.422;2023-02-01T18:04:44;9.48;77.77
68943;DHT22;60852;52.190;4.422;2023-02-01T18:07:09;9.52;77.60
68943;DHT22;60852;52.190;4.422;2023-02-01T18:09:34;9.55;77.38
68943;DHT22;60852;52.190;4.422;2023-02-01T18:12:03;9.61;77.17
68943;DHT22;60852;52.190;4.422;2023-02-01T18:14:29;9.63;76.81